sensor_id;sensor_type;location;lat;lon;timestamp;temperature;humidity
17968;DHT22;9109;48.050;11.696;2023-03-19T04:48:49;5.20;99.90
17968;DHT22;9109;48.050;11.696;2023-03-19T04:53:40;5.20;99.90
17968;DHT22;9109;48.050;11.696;2023-03-19T05:05:59;5.30;99.90
17968;DHT22;9109;48.050;11.696;2023-03-19T05:30:51;5.60;99.90
17968;DHT22;9109;48.050;11.696;2023-03-19T05:34:38;5.70;99.90
17968;DHT22;9109;48.050;11.696;2023-03-19T05:41:37;5.90;99.90
17968;DHT22;9109;48.050;11.696;2023-03-19T05:45:20;6.00;99.90
17968;DHT22;9109;48.050;11.696;2023-03-19T05:49:15;6.10;99.90
17968;DHT22;9109;48.050;11.696;2023-03-19T05:53:17;6.20;99.90
17968;DHT22;9109;48.050;11.696;2023-03-19T05:57:20;6.20;99.90
17968;DHT22;9109;48.050;11.696;2023-03-19T06:00:44;6.30;99.90
17968;DHT22;9109;48.050;11.696;2023-03-19T06:04:10;6.30;99.90
17968;DHT22;9109;48.050;11.696;2023-03-19T06:07:35;6.40;99.90
17968;DHT22;9109;48.050;11.696;2023-03-19T06:10:53;6.50;99.90
17968;DHT22;9109;48.050;11.696;2023-03-19T06:14:26;6.70;99.90
17968;DHT22;9109;48.050;11.696;2023-03-19T06:17:43;6.80;99.90
17968;DHT22;9109;48.050;11.696;2023-03-19T06:21:04;6.90;99.90
17968;DHT22;9109;48.050;11.696;2023-03-19T06:24:12;7.10;99.90
17968;DHT22;9109;48.050;11.696;2023-03-19T06:31:37;7.30;99.90
17968;DHT22;9109;48.050;11.696;2023-03-19T06:35:16;7.40;99.90
17968;DHT22;9109;48.050;11.696;2023-03-19T06:38:24;7.40;99.90
17968;DHT22;9109;48.050;11.696;2023-03-19T06:41:26;7.50;99.90
17968;DHT22;9109;48.050;11.696;2023-03-19T06:44:31;7.60;99.90
17968;DHT22;9109;48.050;11.696;2023-03-19T06:48:16;7.60;99.90
17968;DHT22;9109;48.050;11.696;2023-03-19T06:51:31;7.60;99.90
17968;DHT22;9109;48.050;11.696;2023-03-19T06:54:54;7.70;99.90
17968;DHT22;9109;48.050;11.696;2023-03-19T06:58:02;7.90;99.90
17968;DHT22;9109;48.050;11.696;2023-03-19T07:02:09;7.90;99.90
17968;DHT22;9109;48.050;11.696;2023-03-19T07:09:28;8.10;99.90
17968;DHT22;9109;48.050;11.696;2023-03-19T07:12:31;8.10;99.90
17968;DHT22;9109;48.050;11.696;2023-03-19T07:15:33;8.10;99.90
17968;DHT22;9109;48.050;11.696;2023-03-19T07:18:35;8.20;99.90
17968;DHT22;9109;48.050;11.696;2023-03-19T07:21:38;8.30;99.90
17968;DHT22;9109;48.050;11.696;2023-03-19T07:24:39;8.30;99.90
17968;DHT22;9109;48.050;11.696;2023-03-19T07:27:43;8.40;99.90
17968;DHT22;9109;48.050;11.696;2023-03-19T07:30:45;8.40;99.90
17968;DHT22;9109;48.050;11.696;2023-03-19T07:33:47;8.40;99.90
17968;DHT22;9109;48.050;11.696;2023-03-19T07:36:49;8.50;99.90
17968;DHT22;9109;48.050;11.696;2023-03-19T07:39:51;8.50;99.90
17968;DHT22;9109;48.050;11.696;2023-03-19T07:42:54;8.60;99.90
17968;DHT22;9109;48.050;11.696;2023-03-19T07:45:56;8.60;99.90
17968;DHT22;9109;48.050;11.696;2023-03-19T07:48:58;8.70;99.90
17968;DHT22;9109;48.050;11.696;2023-03-19T07:52:00;8.60;99.90
17968;DHT22;9109;48.050;11.696;2023-03-19T07:55:02;8.70;99.90
17968;DHT22;9109;48.050;11.696;2023-03-19T07:58:05;8.80;99.90
17968;DHT22;9109;48.050;11.696;2023-03-19T08:01:07;9.00;99.90
17968;DHT22;9109;48.050;11.696;2023-03-19T08:04:09;9.00;99.90
17968;DHT22;9109;48.050;11.696;2023-03-19T08:07:11;9.00;99.90
17968;DHT22;9109;48.050;11.696;2023-03-19T08:10:13;9.10;99.90
17968;DHT22;9109;48.050;11.696;2023-03-19T08:13:17;9.20;99.90
17968;DHT22;9109;48.050;11.696;2023-03-19T08:16:18;9.20;99.90
17968;DHT22;9109;48.050;11.696;2023-03-19T08:19:20;9.20;99.90
17968;DHT22;9109;48.050;11.696;2023-03-19T08:22:22;9.30;99.90
17968;DHT22;9109;48.050;11.696;2023-03-19T08:25:24;9.40;99.90
17968;DHT22;9109;48.050;11.696;2023-03-19T08:28:28;9.30;99.90
17968;DHT22;9109;48.050;11.696;2023-03-19T08:31:30;9.40;99.90
17968;DHT22;9109;48.050;11.696;2023-03-19T08:34:32;9.40;99.90
17968;DHT22;9109;48.050;11.696;2023-03-19T08:37:34;9.40;99.90
17968;DHT22;9109;48.050;11.696;2023-03-19T08:40:36;9.50;99.90
17968;DHT22;9109;48.050;11.696;2023-03-19T08:43:39;9.60;99.90
17968;DHT22;9109;48.050;11.696;2023-03-19T08:46:41;9.70;99.90
17968;DHT22;9109;48.050;11.696;2023-03-19T08:49:43;9.80;99.90
17968;DHT22;9109;48.050;11.696;2023-03-19T08:52:45;9.80;99.90
17968;DHT22;9109;48.050;11.696;2023-03-19T08:55:51;9.90;99.90
17968;DHT22;9109;48.050;11.696;2023-03-19T08:58:55;9.80;99.90
17968;DHT22;9109;48.050;11.696;2023-03-19T09:01:57;9.80;99.90
17968;DHT22;9109;48.050;11.696;2023-03-19T09:04:59;9.80;99.90
17968;DHT22;9109;48.050;11.696;2023-03-19T09:08:01;9.90;99.90
17968;DHT22;9109;48.050;11.696;2023-03-19T09:11:04;10.00;99.90
17968;DHT22;9109;48.050;11.696;2023-03-19T09:14:07;10.00;99.90
17968;DHT22;9109;48.050;11.696;2023-03-19T09:17:11;10.10;99.90
17968;DHT22;9109;48.050;11.696;2023-03-19T09:20:15;10.20;99.90
17968;DHT22;9109;48.050;11.696;2023-03-19T09:23:17;10.20;99.90
17968;DHT22;9109;48.050;11.696;2023-03-19T09:26:19;10.30;99.90
17968;DHT22;9109;48.050;11.696;2023-03-19T09:29:22;10.40;99.90
17968;DHT22;9109;48.050;11.696;2023-03-19T09:32:24;10.40;99.90
17968;DHT22;9109;48.050;11.696;2023-03-19T09:35:26;10.50;99.90
17968;DHT22;9109;48.050;11.696;2023-03-19T09:38:30;10.50;99.90
17968;DHT22;9109;48.050;11.696;2023-03-19T09:41:39;10.60;99.90
17968;DHT22;9109;48.050;11.696;2023-03-19T09:44:45;10.70;99.90
17968;DHT22;9109;48.050;11.696;2023-03-19T09:47:51;10.90;99.90
17968;DHT22;9109;48.050;11.696;2023-03-19T09:50:55;11.00;99.90
17968;DHT22;9109;48.050;11.696;2023-03-19T09:54:00;11.00;99.90
17968;DHT22;9109;48.050;11.696;2023-03-19T09:57:04;11.10;99.90
17968;DHT22;9109;48.050;11.696;2023-03-19T10:00:19;11.00;99.90
17968;DHT22;9109;48.050;11.696;2023-03-19T10:03:36;11.00;99.90
17968;DHT22;9109;48.050;11.696;2023-03-19T10:06:39;11.00;99.90
17968;DHT22;9109;48.050;11.696;2023-03-19T10:09:51;11.10;99.90
17968;DHT22;9109;48.050;11.696;2023-03-19T10:13:00;11.20;99.90
17968;DHT22;9109;48.050;11.696;2023-03-19T10:16:12;11.30;99.90
17968;DHT22;9109;48.050;11.696;2023-03-19T10:19:20;11.40;99.90
17968;DHT22;9109;48.050;11.696;2023-03-19T10:22:28;11.50;99.90
17968;DHT22;9109;48.050;11.696;2023-03-19T10:25:33;11.60;99.90
17968;DHT22;9109;48.050;11.696;2023-03-19T10:28:41;11.70;99.90
17968;DHT22;9109;48.050;11.696;2023-03-19T10:31:50;11.80;99.90
17968;DHT22;9109;48.050;11.696;2023-03-19T10:34:53;11.90;99.90
17968;DHT22;9109;48.050;11.696;2023-03-19T10:37:56;12.00;99.90
17968;DHT22;9109;48.050;11.696;2023-03-19T10:41:15;12.10;99.90
17968;DHT22;9109;48.050;11.696;2023-03-19T10:44:27;12.10;99.90
17968;DHT22;9109;48.050;11.696;2023-03-19T10:47:37;12.10;99.90
17968;DHT22;9109;48.050;11.696;2023-03-19T10:50:47;12.20;99.90
17968;DHT22;9109;48.050;11.696;2023-03-19T10:53:52;12.30;99.90
17968;DHT22;9109;48.050;11.696;2023-03-19T10:56:55;12.30;99.90
17968;DHT22;9109;48.050;11.696;2023-03-19T11:00:02;12.30;99.90
17968;DHT22;9109;48.050;11.696;2023-03-19T11:03:27;12.40;99.90
17968;DHT22;9109;48.050;11.696;2023-03-19T11:06:32;12.50;99.90
17968;DHT22;9109;48.050;11.696;2023-03-19T11:09:35;12.60;99.90
17968;DHT22;9109;48.050;11.696;2023-03-19T11:12:38;12.60;99.90
17968;DHT22;9109;48.050;11.696;2023-03-19T11:15:40;12.60;99.90
17968;DHT22;9109;48.050;11.696;2023-03-19T11:18:46;12.50;99.90
17968;DHT22;9109;48.050;11.696;2023-03-19T11:22:08;12.60;99.90
17968;DHT22;9109;48.050;11.696;2023-03-19T11:25:14;12.60;99.20
17968;DHT22;9109;48.050;11.696;2023-03-19T11:28:20;12.50;99.30
17968;DHT22;9109;48.050;11.696;2023-03-19T11:31:28;12.50;98.80
17968;DHT22;9109;48.050;11.696;2023-03-19T11:34:42;12.40;98.30
17968;DHT22;9109;48.050;11.696;2023-03-19T11:37:53;12.50;99.10
17968;DHT22;9109;48.050;11.696;2023-03-19T11:41:03;12.60;98.90
17968;DHT22;9109;48.050;11.696;2023-03-19T11:44:10;12.60;98.10
17968;DHT22;9109;48.050;11.696;2023-03-19T11:47:21;12.60;98.00
17968;DHT22;9109;48.050;11.696;2023-03-19T11:50:34;12.60;97.60
17968;DHT22;9109;48.050;11.696;2023-03-19T11:53:49;12.50;97.70
17968;DHT22;9109;48.050;11.696;2023-03-19T11:56:57;12.60;97.40
17968;DHT22;9109;48.050;11.696;2023-03-19T12:00:13;12.70;97.50
17968;DHT22;9109;48.050;11.696;2023-03-19T12:07:10;12.90;96.20
17968;DHT22;9109;48.050;11.696;2023-03-19T12:10:27;13.20;96.00
17968;DHT22;9109;48.050;11.696;2023-03-19T12:13:40;13.20;95.10
17968;DHT22;9109;48.050;11.696;2023-03-19T12:16:58;12.80;94.80
17968;DHT22;9109;48.050;11.696;2023-03-19T12:20:23;13.00;95.00
17968;DHT22;9109;48.050;11.696;2023-03-19T12:23:39;13.20;94.70
17968;DHT22;9109;48.050;11.696;2023-03-19T12:26:50;13.40;94.50
17968;DHT22;9109;48.050;11.696;2023-03-19T12:30:01;13.50;93.20
17968;DHT22;9109;48.050;11.696;2023-03-19T12:33:10;13.50;93.20
17968;DHT22;9109;48.050;11.696;2023-03-19T12:36:20;13.60;92.60
17968;DHT22;9109;48.050;11.696;2023-03-19T12:39:28;13.80;92.30
17968;DHT22;9109;48.050;11.696;2023-03-19T12:42:35;13.70;91.40
17968;DHT22;9109;48.050;11.696;2023-03-19T12:45:40;13.80;92.40
17968;DHT22;9109;48.050;11.696;2023-03-19T12:48:47;13.90;91.10
17968;DHT22;9109;48.050;11.696;2023-03-19T12:51:54;13.80;89.80
17968;DHT22;9109;48.050;11.696;2023-03-19T12:55:02;13.60;90.50
17968;DHT22;9109;48.050;11.696;2023-03-19T12:58:12;13.60;90.50
17968;DHT22;9109;48.050;11.696;2023-03-19T13:01:19;13.80;90.00
17968;DHT22;9109;48.050;11.696;2023-03-19T13:04:26;13.90;89.60
17968;DHT22;9109;48.050;11.696;2023-03-19T13:07:35;13.90;87.10
17968;DHT22;9109;48.050;11.696;2023-03-19T13:10:41;13.70;85.60
17968;DHT22;9109;48.050;11.696;2023-03-19T13:13:49;13.70;87.20
17968;DHT22;9109;48.050;11.696;2023-03-19T13:16:56;13.80;87.00
17968;DHT22;9109;48.050;11.696;2023-03-19T13:20:06;13.90;89.20
17968;DHT22;9109;48.050;11.696;2023-03-19T13:23:21;13.90;86.60
17968;DHT22;9109;48.050;11.696;2023-03-19T13:26:26;14.00;87.80
17968;DHT22;9109;48.050;11.696;2023-03-19T13:29:29;14.20;87.90
17968;DHT22;9109;48.050;11.696;2023-03-19T13:32:36;14.30;85.50
17968;DHT22;9109;48.050;11.696;2023-03-19T13:35:43;14.30;84.00
17968;DHT22;9109;48.050;11.696;2023-03-19T13:38:48;14.20;83.80
17968;DHT22;9109;48.050;11.696;2023-03-19T13:41:57;14.20;86.70
17968;DHT22;9109;48.050;11.696;2023-03-19T13:45:27;14.40;85.20
17968;DHT22;9109;48.050;11.696;2023-03-19T13:48:36;14.60;84.10
17968;DHT22;9109;48.050;11.696;2023-03-19T13:51:38;14.30;79.00
17968;DHT22;9109;48.050;11.696;2023-03-19T13:54:43;14.00;79.80
17968;DHT22;9109;48.050;11.696;2023-03-19T13:57:53;13.80;80.70
17968;DHT22;9109;48.050;11.696;2023-03-19T14:01:01;13.90;81.70
17968;DHT22;9109;48.050;11.696;2023-03-19T14:04:04;13.90;82.70
17968;DHT22;9109;48.050;11.696;2023-03-19T14:07:15;13.90;81.30
17968;DHT22;9109;48.050;11.696;2023-03-19T14:10:24;14.00;83.10
17968;DHT22;9109;48.050;11.696;2023-03-19T14:13:32;14.00;81.30
17968;DHT22;9109;48.050;11.696;2023-03-19T14:16:37;13.80;81.20
17968;DHT22;9109;48.050;11.696;2023-03-19T14:19:42;13.70;80.90
17968;DHT22;9109;48.050;11.696;2023-03-19T14:22:54;13.60;81.90
17968;DHT22;9109;48.050;11.696;2023-03-19T14:26:05;13.70;82.50
17968;DHT22;9109;48.050;11.696;2023-03-19T14:29:13;13.60;81.80
17968;DHT22;9109;48.050;11.696;2023-03-19T14:32:17;13.60;81.10
17968;DHT22;9109;48.050;11.696;2023-03-19T14:35:20;13.70;82.50
17968;DHT22;9109;48.050;11.696;2023-03-19T14:38:31;13.60;83.70
17968;DHT22;9109;48.050;11.696;2023-03-19T14:41:39;13.50;84.30
17968;DHT22;9109;48.050;11.696;2023-03-19T14:45:24;13.60;84.50
17968;DHT22;9109;48.050;11.696;2023-03-19T14:49:02;13.90;83.60
17968;DHT22;9109;48.050;11.696;2023-03-19T14:52:15;14.10;84.70
17968;DHT22;9109;48.050;11.696;2023-03-19T14:55:18;14.20;82.50
17968;DHT22;9109;48.050;11.696;2023-03-19T14:58:21;14.30;82.70
17968;DHT22;9109;48.050;11.696;2023-03-19T15:01:25;14.20;81.50
17968;DHT22;9109;48.050;11.696;2023-03-19T15:04:27;14.20;81.40
17968;DHT22;9109;48.050;11.696;2023-03-19T15:07:32;14.40;81.70
17968;DHT22;9109;48.050;11.696;2023-03-19T15:10:42;14.20;80.20
17968;DHT22;9109;48.050;11.696;2023-03-19T15:13:57;14.10;80.30
17968;DHT22;9109;48.050;11.696;2023-03-19T15:17:09;14.10;81.30
17968;DHT22;9109;48.050;11.696;2023-03-19T15:20:19;14.30;82.00
17968;DHT22;9109;48.050;11.696;2023-03-19T15:23:24;14.30;81.80
17968;DHT22;9109;48.050;11.696;2023-03-19T15:26:31;14.30;81.80
17968;DHT22;9109;48.050;11.696;2023-03-19T15:29:34;14.20;81.20
17968;DHT22;9109;48.050;11.696;2023-03-19T15:32:38;14.20;81.40
17968;DHT22;9109;48.050;11.696;2023-03-19T15:35:42;14.30;80.90
17968;DHT22;9109;48.050;11.696;2023-03-19T15:38:50;14.40;81.40
17968;DHT22;9109;48.050;11.696;2023-03-19T15:41:55;14.30;80.20
17968;DHT22;9109;48.050;11.696;2023-03-19T15:45:02;14.10;80.40
17968;DHT22;9109;48.050;11.696;2023-03-19T15:48:13;14.00;81.40
17968;DHT22;9109;48.050;11.696;2023-03-19T15:51:18;14.10;81.00
17968;DHT22;9109;48.050;11.696;2023-03-19T15:54:21;14.00;81.00
17968;DHT22;9109;48.050;11.696;2023-03-19T15:57:24;14.00;81.60
17968;DHT22;9109;48.050;11.696;2023-03-19T16:00:26;14.00;82.00
17968;DHT22;9109;48.050;11.696;2023-03-19T16:03:33;14.00;80.10
17968;DHT22;9109;48.050;11.696;2023-03-19T16:06:38;13.80;80.10
17968;DHT22;9109;48.050;11.696;2023-03-19T16:09:40;13.80;81.00
17968;DHT22;9109;48.050;11.696;2023-03-19T16:12:48;13.90;81.50
17968;DHT22;9109;48.050;11.696;2023-03-19T16:15:55;14.00;80.90
17968;DHT22;9109;48.050;11.696;2023-03-19T16:19:01;14.00;80.60
17968;DHT22;9109;48.050;11.696;2023-03-19T16:22:10;14.10;81.10
17968;DHT22;9109;48.050;11.696;2023-03-19T16:25:16;14.10;82.40
17968;DHT22;9109;48.050;11.696;2023-03-19T16:28:20;14.10;83.90
17968;DHT22;9109;48.050;11.696;2023-03-19T16:31:24;14.00;84.60
17968;DHT22;9109;48.050;11.696;2023-03-19T16:34:38;13.90;83.50
17968;DHT22;9109;48.050;11.696;2023-03-19T16:37:41;13.80;83.80
17968;DHT22;9109;48.050;11.696;2023-03-19T16:40:45;13.50;83.20
17968;DHT22;9109;48.050;11.696;2023-03-19T16:43:47;13.40;83.70
17968;DHT22;9109;48.050;11.696;2023-03-19T16:46:48;13.40;84.60
17968;DHT22;9109;48.050;11.696;2023-03-19T16:49:52;13.40;85.40
17968;DHT22;9109;48.050;11.696;2023-03-19T16:56:05;13.20;86.50
17968;DHT22;9109;48.050;11.696;2023-03-19T16:59:11;13.20;87.20
17968;DHT22;9109;48.050;11.696;2023-03-19T17:02:17;13.10;87.70
17968;DHT22;9109;48.050;11.696;2023-03-19T17:05:26;13.10;88.00
17968;DHT22;9109;48.050;11.696;2023-03-19T17:08:42;13.10;88.30
17968;DHT22;9109;48.050;11.696;2023-03-19T17:11:45;12.90;89.30
17968;DHT22;9109;48.050;11.696;2023-03-19T17:14:50;12.70;90.10
17968;DHT22;9109;48.050;11.696;2023-03-19T17:17:53;12.70;90.60
17968;DHT22;9109;48.050;11.696;2023-03-19T17:20:59;12.60;90.70
17968;DHT22;9109;48.050;11.696;2023-03-19T17:24:20;12.50;91.10
17968;DHT22;9109;48.050;11.696;2023-03-19T17:27:23;12.40;91.60
17968;DHT22;9109;48.050;11.696;2023-03-19T17:30:26;12.20;92.10
17968;DHT22;9109;48.050;11.696;2023-03-19T17:33:29;12.30;92.20
17968;DHT22;9109;48.050;11.696;2023-03-19T17:36:32;12.20;92.40
17968;DHT22;9109;48.050;11.696;2023-03-19T17:39:35;12.20;92.50
17968;DHT22;9109;48.050;11.696;2023-03-19T17:42:37;12.00;93.00
17968;DHT22;9109;48.050;11.696;2023-03-19T17:45:41;11.70;93.50
17968;DHT22;9109;48.050;11.696;2023-03-19T17:48:45;11.60;94.30
17968;DHT22;9109;48.050;11.696;2023-03-19T17:51:49;11.50;95.10
17968;DHT22;9109;48.050;11.696;2023-03-19T17:54:51;11.50;95.90
17968;DHT22;9109;48.050;11.696;2023-03-19T17:57:54;11.50;95.70
17968;DHT22;9109;48.050;11.696;2023-03-19T18:00:56;11.50;95.80
17968;DHT22;9109;48.050;11.696;2023-03-19T18:03:58;11.40;95.90
17968;DHT22;9109;48.050;11.696;2023-03-19T18:07:02;11.40;96.20
17968;DHT22;9109;48.050;11.696;2023-03-19T18:10:05;11.30;96.40
17968;DHT22;9109;48.050;11.696;2023-03-19T18:13:08;11.20;96.70
17968;DHT22;9109;48.050;11.696;2023-03-19T18:16:15;11.20;96.80
17968;DHT22;9109;48.050;11.696;2023-03-19T18:19:20;11.20;96.90
17968;DHT22;9109;48.050;11.696;2023-03-19T18:22:26;11.00;97.20
17968;DHT22;9109;48.050;11.696;2023-03-19T18:25:28;10.80;97.70
17968;DHT22;9109;48.050;11.696;2023-03-19T18:28:31;10.70;98.30
17968;DHT22;9109;48.050;11.696;2023-03-19T18:31:33;10.60;98.80
17968;DHT22;9109;48.050;11.696;2023-03-19T18:34:36;10.60;99.30
17968;DHT22;9109;48.050;11.696;2023-03-19T18:37:40;10.50;99.70
17968;DHT22;9109;48.050;11.696;2023-03-19T18:40:42;10.40;99.90
17968;DHT22;9109;48.050;11.696;2023-03-19T18:43:44;10.30;99.90
17968;DHT22;9109;48.050;11.696;2023-03-19T18:46:46;10.20;99.90
17968;DHT22;9109;48.050;11.696;2023-03-19T18:49:49;10.10;99.90
17968;DHT22;9109;48.050;11.696;2023-03-19T18:52:55;10.00;99.90
17968;DHT22;9109;48.050;11.696;2023-03-19T18:55:57;9.90;99.90
17968;DHT22;9109;48.050;11.696;2023-03-19T18:59:04;9.80;99.90
17968;DHT22;9109;48.050;11.696;2023-03-19T19:02:20;9.70;99.90
17968;DHT22;9109;48.050;11.696;2023-03-19T19:05:26;9.60;99.90
17968;DHT22;9109;48.050;11.696;2023-03-19T19:08:30;9.40;99.90
17968;DHT22;9109;48.050;11.696;2023-03-19T19:11:32;9.30;99.90
17968;DHT22;9109;48.050;11.696;2023-03-19T19:14:35;9.30;99.90
17968;DHT22;9109;48.050;11.696;2023-03-19T19:17:37;9.30;99.90
17968;DHT22;9109;48.050;11.696;2023-03-19T19:20:41;9.30;99.90
17968;DHT22;9109;48.050;11.696;2023-03-19T19:23:44;9.40;99.90
17968;DHT22;9109;48.050;11.696;2023-03-19T19:26:47;9.40;99.90
17968;DHT22;9109;48.050;11.696;2023-03-19T19:29:53;9.40;99.90
17968;DHT22;9109;48.050;11.696;2023-03-19T19:32:55;9.40;99.90
17968;DHT22;9109;48.050;11.696;2023-03-19T19:35:57;9.30;99.90
17968;DHT22;9109;48.050;11.696;2023-03-19T19:39:01;9.30;99.90
17968;DHT22;9109;48.050;11.696;2023-03-19T19:42:04;9.30;99.90
17968;DHT22;9109;48.050;11.696;2023-03-19T19:45:20;9.30;99.90
17968;DHT22;9109;48.050;11.696;2023-03-19T19:48:25;9.30;99.90
17968;DHT22;9109;48.050;11.696;2023-03-19T19:51:31;9.30;99.90
17968;DHT22;9109;48.050;11.696;2023-03-19T19:54:37;9.20;99.90
17968;DHT22;9109;48.050;11.696;2023-03-19T19:57:39;9.20;99.90
17968;DHT22;9109;48.050;11.696;2023-03-19T20:00:41;9.20;99.90
17968;DHT22;9109;48.050;11.696;2023-03-19T20:03:44;9.30;99.90
17968;DHT22;9109;48.050;11.696;2023-03-19T20:06:46;9.30;99.90
17968;DHT22;9109;48.050;11.696;2023-03-19T20:09:49;9.40;99.90
17968;DHT22;9109;48.050;11.696;2023-03-19T20:12:53;9.30;99.90
17968;DHT22;9109;48.050;11.696;2023-03-19T20:15:56;9.10;99.90
17968;DHT22;9109;48.050;11.696;2023-03-19T20:18:58;9.00;99.90
17968;DHT22;9109;48.050;11.696;2023-03-19T20:22:01;9.00;99.90
17968;DHT22;9109;48.050;11.696;2023-03-19T20:25:05;8.90;99.90
17968;DHT22;9109;48.050;11.696;2023-03-19T20:28:09;8.80;99.90
17968;DHT22;9109;48.050;11.696;2023-03-19T20:36:03;8.90;99.90
17968;DHT22;9109;48.050;11.696;2023-03-19T20:43:58;9.10;99.90
17968;DHT22;9109;48.050;11.696;2023-03-19T20:47:27;9.20;99.90
17968;DHT22;9109;48.050;11.696;2023-03-19T21:30:19;9.80;99.90
17968;DHT22;9109;48.050;11.696;2023-03-19T21:33:51;9.90;99.90
17968;DHT22;9109;48.050;11.696;2023-03-19T21:41:41;9.80;99.90
17968;DHT22;9109;48.050;11.696;2023-03-19T22:21:39;9.80;99.90
17968;DHT22;9109;48.050;11.696;2023-03-19T22:25:30;9.80;99.90
17968;DHT22;9109;48.050;11.696;2023-03-19T22:28:55;9.70;99.90
17968;DHT22;9109;48.050;11.696;2023-03-19T22:32:28;9.70;99.90
17968;DHT22;9109;48.050;11.696;2023-03-19T22:35:38;9.70;99.90
17968;DHT22;9109;48.050;11.696;2023-03-19T22:39:03;9.50;99.90
17968;DHT22;9109;48.050;11.696;2023-03-19T22:42:26;9.50;99.90
17968;DHT22;9109;48.050;11.696;2023-03-19T22:45:56;9.50;99.90
17968;DHT22;9109;48.050;11.696;2023-03-19T22:49:21;9.40;99.90
17968;DHT22;9109;48.050;11.696;2023-03-19T22:52:41;9.40;99.90
17968;DHT22;9109;48.050;11.696;2023-03-19T22:56:12;9.30;99.90
17968;DHT22;9109;48.050;11.696;2023-03-19T22:59:30;9.30;99.90
17968;DHT22;9109;48.050;11.696;2023-03-19T23:03:00;9.30;99.90
17968;DHT22;9109;48.050;11.696;2023-03-19T23:10:13;9.30;99.90
17968;DHT22;9109;48.050;11.696;2023-03-19T23:13:45;9.20;99.90
17968;DHT22;9109;48.050;11.696;2023-03-19T23:17:14;9.10;99.90
17968;DHT22;9109;48.050;11.696;2023-03-19T23:20:33;9.00;99.90
17968;DHT22;9109;48.050;11.696;2023-03-19T23:23:44;9.00;99.90
17968;DHT22;9109;48.050;11.696;2023-03-19T23:26:48;9.00;99.90
17968;DHT22;9109;48.050;11.696;2023-03-19T23:30:00;8.90;99.90
17968;DHT22;9109;48.050;11.696;2023-03-19T23:33:12;8.90;99.90
17968;DHT22;9109;48.050;11.696;2023-03-19T23:36:34;8.90;99.90
17968;DHT22;9109;48.050;11.696;2023-03-19T23:39:43;8.90;99.90
17968;DHT22;9109;48.050;11.696;2023-03-19T23:42:49;8.90;99.90
17968;DHT22;9109;48.050;11.696;2023-03-19T23:46:00;8.90;99.90
17968;DHT22;9109;48.050;11.696;2023-03-19T23:49:03;8.80;99.90
17968;DHT22;9109;48.050;11.696;2023-03-19T23:52:24;8.80;99.90
17968;DHT22;9109;48.050;11.696;2023-03-19T23:55:46;8.80;99.90
17968;DHT22;9109;48.050;11.696;2023-03-19T23:59:00;8.70;99.90
